Hebei Shijiazhuang — VRIS2 — position and weather

sailwx.info

Track history (hours):
 
Tides and Currents Weather Stations Pressure Air Temp Water Temp Dewpoint Dewpoint Depression Visibility Wind Speed Wind Dir Waves Ship Positions

Hebei Shijiazhuang

Last reported at 2014-Jul-27 14:23 UTC. Time now 2014-Jul-29 02:40 UTC.
Position N 22°21' E 119°56'.

Length 235 m; draft 7.6 m.

Type: Cargo ship. MMSI: 477899600.

Date/timePositionNaut miles runAvg speedWind from/ knotsBaromVisibWave heightAir tempDewpointWater temp
2014-Jul-27 14:23N 22°21' E 119°56'1112.6
2014-Jul-27 13:33N 22°32' E 119°56'1312.9
2014-Jul-27 12:33N 22°44' E 119°56'42012.2
2014-Jul-26 02:03N 29°13' E 122°52'711.3
2014-Jul-26 01:24N 29°20' E 122°54'2411.2
2014-Jul-25 23:16N 29°43' E 123°03'911.4
2014-Jul-25 22:32N 29°51' E 123°06'1211.9
2014-Jul-25 21:30N 30°03' E 123°07'1612.1
2014-Jul-25 20:10N 30°19' E 123°05'812.3
2014-Jul-25 19:33N 30°27' E 123°03'1312.6
2014-Jul-25 18:33N 30°39' E 122°58'1313.2
2014-Jul-25 17:33N 30°51' E 122°52'1413.9
2014-Jul-25 16:34N 30°57' E 122°38'1212.1
2014-Jul-25 15:33N 31°01' E 122°24'1010.4
2014-Jul-25 14:33N 31°03' E 122°12'9 9.4
2014-Jul-25 13:33N 31°05' E 122°02'10 9.2
2014-Jul-25 12:29N 31°10' E 121°52'1112.1
2014-Jul-25 11:33N 31°18' E 121°43'1111.3
2014-Jul-25 10:34N 31°24' E 121°32'1010.2
2014-Jul-25 09:33N 31°31' E 121°23'7 3.4
2014-Jul-25 07:31N 31°37' E 121°18'0 0.0
2014-Jul-25 06:26N 31°37' E 121°18'0 0.1
2014-Jul-25 05:34N 31°37' E 121°18'5 5.4
2014-Jul-25 04:33N 31°40' E 121°12'1313.3
2014-Jul-25 03:33N 31°47' E 120°59'1313.1
2014-Jul-25 02:34N 31°58' E 120°51'1313.4
2014-Jul-25 01:33N 32°01' E 120°36'1111.0
2014-Jul-25 00:33N 32°01' E 120°23'1312.7
2014-Jul-24 23:34N 31°56' E 120°09'0 0.2
2014-Jul-24 22:31N 31°56' E 120°09'0 0.0
2014-Jul-24 21:31N 31°56' E 120°09'0 0.0
2014-Jul-24 20:31N 31°56' E 120°09'0 0.0
2014-Jul-24 19:28N 31°56' E 120°09'0 0.0
2014-Jul-24 18:31N 31°56' E 120°09'0 0.0
2014-Jul-24 17:31N 31°56' E 120°09'0 0.0
2014-Jul-24 16:31N 31°56' E 120°09'0 0.0
2014-Jul-24 15:31N 31°56' E 120°09'0 0.0
2014-Jul-24 14:31N 31°56' E 120°09'0 0.0
2014-Jul-24 13:31N 31°56' E 120°09'0 0.0
2014-Jul-24 12:31N 31°56' E 120°09'0 0.0
2014-Jul-24 11:22N 31°56' E 120°09'0 0.0
2014-Jul-24 10:31N 31°56' E 120°09'0 0.0
2014-Jul-24 09:31N 31°56' E 120°09'0 0.0
2014-Jul-24 08:31N 31°56' E 120°09'0 0.0
2014-Jul-24 07:31N 31°56' E 120°09'0 0.0
2014-Jul-24 06:31N 31°56' E 120°09'0 0.0
2014-Jul-24 05:31N 31°56' E 120°09'0 0.0
2014-Jul-24 04:31N 31°56' E 120°09'0 0.0
2014-Jul-24 03:31N 31°56' E 120°09'0 0.0
2014-Jul-24 02:31N 31°56' E 120°09'0 0.0
2014-Jul-24 01:31N 31°56' E 120°09'0 0.0
2014-Jul-24 00:31N 31°56' E 120°09'0 0.0
2014-Jul-23 23:31N 31°56' E 120°09'0 0.0
2014-Jul-23 22:31N 31°56' E 120°09'0 0.0
2014-Jul-23 21:31N 31°56' E 120°09'0 0.0
2014-Jul-23 20:31N 31°56' E 120°09'0 0.0
2014-Jul-23 19:28N 31°56' E 120°09'0 0.0
2014-Jul-23 18:31N 31°56' E 120°09'0 0.0
2014-Jul-23 17:31N 31°56' E 120°09'0 0.0
2014-Jul-23 16:31N 31°56' E 120°09'0 0.0
2014-Jul-23 15:31N 31°56' E 120°09'0 0.0
2014-Jul-23 14:31N 31°56' E 120°09'0 0.0
2014-Jul-23 13:31N 31°56' E 120°09'0 0.0
2014-Jul-23 12:28N 31°56' E 120°09'0 0.0
2014-Jul-23 11:31N 31°56' E 120°09'0 0.0
2014-Jul-23 10:28N 31°56' E 120°09'0 0.0
2014-Jul-23 09:31N 31°56' E 120°09'0 0.0
2014-Jul-23 08:28N 31°56' E 120°09'0 0.0
2014-Jul-23 07:31N 31°56' E 120°09'0 0.0
2014-Jul-23 06:31N 31°56' E 120°09'0 0.0
2014-Jul-23 05:31N 31°56' E 120°09'0 0.0
2014-Jul-23 04:31N 31°56' E 120°09'0 0.0
2014-Jul-23 03:31N 31°56' E 120°09'0 0.0
2014-Jul-23 02:31N 31°56' E 120°09'0 0.0
2014-Jul-23 01:31N 31°56' E 120°09'0 0.0
2014-Jul-23 00:31N 31°56' E 120°09'0 0.0
2014-Jul-22 23:31N 31°56' E 120°09'0 0.0
2014-Jul-22 22:31N 31°56' E 120°09'0 0.0
2014-Jul-22 21:31N 31°56' E 120°09'0 0.0
2014-Jul-22 20:31N 31°56' E 120°09'0 0.0
2014-Jul-22 19:31N 31°56' E 120°09'0 0.0
2014-Jul-22 18:31N 31°56' E 120°09'0 0.0
2014-Jul-22 17:31N 31°56' E 120°09'0 0.0
2014-Jul-22 16:31N 31°56' E 120°09'0 0.0
2014-Jul-22 15:31N 31°56' E 120°09'0 0.0
2014-Jul-22 14:31N 31°56' E 120°09'0 0.0
2014-Jul-22 13:31N 31°56' E 120°09'0 0.0
2014-Jul-22 12:31N 31°56' E 120°09'0 0.0
2014-Jul-22 11:31N 31°56' E 120°09'0 0.0
2014-Jul-22 10:31N 31°56' E 120°09'0 0.0
2014-Jul-22 09:31N 31°56' E 120°09'0 0.0
2014-Jul-22 08:31N 31°56' E 120°09'0 0.0
2014-Jul-22 07:31N 31°56' E 120°09'0 0.0
2014-Jul-22 06:31N 31°56' E 120°09'0 0.0
2014-Jul-22 05:31N 31°56' E 120°09'0 0.0
2014-Jul-22 04:31N 31°56' E 120°09'0 0.0
2014-Jul-22 03:25N 31°56' E 120°09'0 0.0
2014-Jul-22 02:31N 31°56' E 120°09'0 0.0
2014-Jul-22 01:31N 31°56' E 120°09'0 0.0
2014-Jul-22 00:31N 31°56' E 120°09'0 0.0
2014-Jul-21 23:31N 31°56' E 120°09'0 0.0
2014-Jul-21 22:31N 31°56' E 120°09'0 0.0
2014-Jul-21 21:25N 31°56' E 120°09'0 0.0
2014-Jul-21 20:25N 31°56' E 120°09'0 0.0
2014-Jul-21 20:13N 31°56' E 120°09'0 0.0
2014-Jul-21 19:25N 31°56' E 120°09'0 0.0
2014-Jul-21 18:31N 31°56' E 120°09'0 0.0
2014-Jul-21 17:31N 31°56' E 120°09'0 0.0
2014-Jul-21 16:31N 31°56' E 120°09'1 1.4
2014-Jul-21 15:33N 31°56' E 120°11'10 9.7
2014-Jul-21 14:34N 31°58' E 120°22'6 6.5
2014-Jul-21 13:34N 32°02' E 120°28'1110.8
2014-Jul-21 12:34N 32°00' E 120°40'9 9.4
2014-Jul-21 11:33N 31°58' E 120°51'1110.7
2014-Jul-21 10:33N 31°48' E 120°55'9 9.5
2014-Jul-21 09:34N 31°45' E 121°06'1010.3
2014-Jul-21 08:33N 31°38' E 121°15'5 4.0
2014-Jul-21 07:20N 31°35' E 121°19'0 0.0
2014-Jul-21 05:08N 31°35' E 121°19'0 0.0
2014-Jul-21 04:32N 31°35' E 121°19'3 3.3
2014-Jul-21 03:33N 31°32' E 121°21'9 9.0
2014-Jul-21 02:33N 31°26' E 121°29'10 9.9
2014-Jul-21 01:33N 31°21' E 121°39'10 9.7
2014-Jul-21 00:33N 31°17' E 121°49'10 9.6
2014-Jul-20 23:32N 31°15' E 122°01'9 9.5
2014-Jul-20 22:34N 31°11' E 122°10'10 9.7
2014-Jul-20 21:33N 31°06' E 122°20'8 8.2
2014-Jul-20 20:33N 31°07' E 122°30'7 7.2
2014-Jul-20 19:31N 31°07' E 122°38'8 6.3
2014-Jul-20 18:16N 31°10' E 122°47'0 0.1
2014-Jul-20 16:08N 31°10' E 122°47'0 0.0
2014-Jul-19 23:32N 31°10' E 122°47'0 0.1
2014-Jul-19 20:23N 31°10' E 122°47'0 0.1
2014-Jul-19 19:23N 31°10' E 122°47'0 0.0
2014-Jul-19 12:17N 31°10' E 122°47'19 0.4
2014-Jul-17 18:24N 30°52' E 122°53'1112.7
2014-Jul-17 17:33N 30°42' E 122°57'1312.7
2014-Jul-17 16:33N 30°30' E 123°01'1312.6
2014-Jul-17 15:32N 30°18' E 123°06'1212.0
2014-Jul-17 14:33N 30°06' E 123°06'  
Track history (hours):
 
Tides and Currents Weather Stations Pressure Air Temp Water Temp Dewpoint Dewpoint Depression Visibility Wind Speed Wind Dir Waves Ship Positions

Hebei Shijiazhuang

Last reported at 2014-Jul-27 14:23 UTC. Time now 2014-Jul-29 02:40 UTC.
Position N 22°21' E 119°56'.

Length 235 m; draft 7.6 m.

Type: Cargo ship. MMSI: 477899600.

Date/timePositionNaut miles runAvg speedWind from/ knotsBaromVisibWave heightAir tempDewpointWater temp
2014-Jul-27 14:23N 22°21' E 119°56'1112.6
2014-Jul-27 13:33N 22°32' E 119°56'1312.9
2014-Jul-27 12:33N 22°44' E 119°56'42012.2
2014-Jul-26 02:03N 29°13' E 122°52'711.3
2014-Jul-26 01:24N 29°20' E 122°54'2411.2
2014-Jul-25 23:16N 29°43' E 123°03'911.4
2014-Jul-25 22:32N 29°51' E 123°06'1211.9
2014-Jul-25 21:30N 30°03' E 123°07'1612.1
2014-Jul-25 20:10N 30°19' E 123°05'812.3
2014-Jul-25 19:33N 30°27' E 123°03'1312.6
2014-Jul-25 18:33N 30°39' E 122°58'1313.2
2014-Jul-25 17:33N 30°51' E 122°52'1413.9
2014-Jul-25 16:34N 30°57' E 122°38'1212.1
2014-Jul-25 15:33N 31°01' E 122°24'1010.4
2014-Jul-25 14:33N 31°03' E 122°12'9 9.4
2014-Jul-25 13:33N 31°05' E 122°02'10 9.2
2014-Jul-25 12:29N 31°10' E 121°52'1112.1
2014-Jul-25 11:33N 31°18' E 121°43'1111.3
2014-Jul-25 10:34N 31°24' E 121°32'1010.2
2014-Jul-25 09:33N 31°31' E 121°23'7 3.4
2014-Jul-25 07:31N 31°37' E 121°18'0 0.0
2014-Jul-25 06:26N 31°37' E 121°18'0 0.1
2014-Jul-25 05:34N 31°37' E 121°18'5 5.4
2014-Jul-25 04:33N 31°40' E 121°12'1313.3
2014-Jul-25 03:33N 31°47' E 120°59'1313.1
2014-Jul-25 02:34N 31°58' E 120°51'1313.4
2014-Jul-25 01:33N 32°01' E 120°36'1111.0
2014-Jul-25 00:33N 32°01' E 120°23'1312.7
2014-Jul-24 23:34N 31°56' E 120°09'0 0.2
2014-Jul-24 22:31N 31°56' E 120°09'0 0.0
2014-Jul-24 21:31N 31°56' E 120°09'0 0.0
2014-Jul-24 20:31N 31°56' E 120°09'0 0.0
2014-Jul-24 19:28N 31°56' E 120°09'0 0.0
2014-Jul-24 18:31N 31°56' E 120°09'0 0.0
2014-Jul-24 17:31N 31°56' E 120°09'0 0.0
2014-Jul-24 16:31N 31°56' E 120°09'0 0.0
2014-Jul-24 15:31N 31°56' E 120°09'0 0.0
2014-Jul-24 14:31N 31°56' E 120°09'0 0.0
2014-Jul-24 13:31N 31°56' E 120°09'0 0.0
2014-Jul-24 12:31N 31°56' E 120°09'0 0.0
2014-Jul-24 11:22N 31°56' E 120°09'0 0.0
2014-Jul-24 10:31N 31°56' E 120°09'0 0.0
2014-Jul-24 09:31N 31°56' E 120°09'0 0.0
2014-Jul-24 08:31N 31°56' E 120°09'0 0.0
2014-Jul-24 07:31N 31°56' E 120°09'0 0.0
2014-Jul-24 06:31N 31°56' E 120°09'0 0.0
2014-Jul-24 05:31N 31°56' E 120°09'0 0.0
2014-Jul-24 04:31N 31°56' E 120°09'0 0.0
2014-Jul-24 03:31N 31°56' E 120°09'0 0.0
2014-Jul-24 02:31N 31°56' E 120°09'0 0.0
2014-Jul-24 01:31N 31°56' E 120°09'0 0.0
2014-Jul-24 00:31N 31°56' E 120°09'0 0.0
2014-Jul-23 23:31N 31°56' E 120°09'0 0.0
2014-Jul-23 22:31N 31°56' E 120°09'0 0.0
2014-Jul-23 21:31N 31°56' E 120°09'0 0.0
2014-Jul-23 20:31N 31°56' E 120°09'0 0.0
2014-Jul-23 19:28N 31°56' E 120°09'0 0.0
2014-Jul-23 18:31N 31°56' E 120°09'0 0.0
2014-Jul-23 17:31N 31°56' E 120°09'0 0.0
2014-Jul-23 16:31N 31°56' E 120°09'0 0.0
2014-Jul-23 15:31N 31°56' E 120°09'0 0.0
2014-Jul-23 14:31N 31°56' E 120°09'0 0.0
2014-Jul-23 13:31N 31°56' E 120°09'0 0.0
2014-Jul-23 12:28N 31°56' E 120°09'0 0.0
2014-Jul-23 11:31N 31°56' E 120°09'0 0.0
2014-Jul-23 10:28N 31°56' E 120°09'0 0.0
2014-Jul-23 09:31N 31°56' E 120°09'0 0.0
2014-Jul-23 08:28N 31°56' E 120°09'0 0.0
2014-Jul-23 07:31N 31°56' E 120°09'0 0.0
2014-Jul-23 06:31N 31°56' E 120°09'0 0.0
2014-Jul-23 05:31N 31°56' E 120°09'0 0.0
2014-Jul-23 04:31N 31°56' E 120°09'0 0.0
2014-Jul-23 03:31N 31°56' E 120°09'0 0.0
2014-Jul-23 02:31N 31°56' E 120°09'0 0.0
2014-Jul-23 01:31N 31°56' E 120°09'0 0.0
2014-Jul-23 00:31N 31°56' E 120°09'0 0.0
2014-Jul-22 23:31N 31°56' E 120°09'0 0.0
2014-Jul-22 22:31N 31°56' E 120°09'0 0.0
2014-Jul-22 21:31N 31°56' E 120°09'0 0.0
2014-Jul-22 20:31N 31°56' E 120°09'0 0.0
2014-Jul-22 19:31N 31°56' E 120°09'0 0.0
2014-Jul-22 18:31N 31°56' E 120°09'0 0.0
2014-Jul-22 17:31N 31°56' E 120°09'0 0.0
2014-Jul-22 16:31N 31°56' E 120°09'0 0.0
2014-Jul-22 15:31N 31°56' E 120°09'0 0.0
2014-Jul-22 14:31N 31°56' E 120°09'0 0.0
2014-Jul-22 13:31N 31°56' E 120°09'0 0.0
2014-Jul-22 12:31N 31°56' E 120°09'0 0.0
2014-Jul-22 11:31N 31°56' E 120°09'0 0.0
2014-Jul-22 10:31N 31°56' E 120°09'0 0.0
2014-Jul-22 09:31N 31°56' E 120°09'0 0.0
2014-Jul-22 08:31N 31°56' E 120°09'0 0.0
2014-Jul-22 07:31N 31°56' E 120°09'0 0.0
2014-Jul-22 06:31N 31°56' E 120°09'0 0.0
2014-Jul-22 05:31N 31°56' E 120°09'0 0.0
2014-Jul-22 04:31N 31°56' E 120°09'0 0.0
2014-Jul-22 03:25N 31°56' E 120°09'0 0.0
2014-Jul-22 02:31N 31°56' E 120°09'0 0.0
2014-Jul-22 01:31N 31°56' E 120°09'0 0.0
2014-Jul-22 00:31N 31°56' E 120°09'0 0.0
2014-Jul-21 23:31N 31°56' E 120°09'0 0.0
2014-Jul-21 22:31N 31°56' E 120°09'0 0.0
2014-Jul-21 21:25N 31°56' E 120°09'0 0.0
2014-Jul-21 20:25N 31°56' E 120°09'0 0.0
2014-Jul-21 20:13N 31°56' E 120°09'0 0.0
2014-Jul-21 19:25N 31°56' E 120°09'0 0.0
2014-Jul-21 18:31N 31°56' E 120°09'0 0.0
2014-Jul-21 17:31N 31°56' E 120°09'0 0.0
2014-Jul-21 16:31N 31°56' E 120°09'1 1.4
2014-Jul-21 15:33N 31°56' E 120°11'10 9.7
2014-Jul-21 14:34N 31°58' E 120°22'6 6.5
2014-Jul-21 13:34N 32°02' E 120°28'1110.8
2014-Jul-21 12:34N 32°00' E 120°40'9 9.4
2014-Jul-21 11:33N 31°58' E 120°51'1110.7
2014-Jul-21 10:33N 31°48' E 120°55'9 9.5
2014-Jul-21 09:34N 31°45' E 121°06'1010.3
2014-Jul-21 08:33N 31°38' E 121°15'5 4.0
2014-Jul-21 07:20N 31°35' E 121°19'0 0.0
2014-Jul-21 05:08N 31°35' E 121°19'0 0.0
2014-Jul-21 04:32N 31°35' E 121°19'3 3.3
2014-Jul-21 03:33N 31°32' E 121°21'9 9.0
2014-Jul-21 02:33N 31°26' E 121°29'10 9.9
2014-Jul-21 01:33N 31°21' E 121°39'10 9.7
2014-Jul-21 00:33N 31°17' E 121°49'10 9.6
2014-Jul-20 23:32N 31°15' E 122°01'9 9.5
2014-Jul-20 22:34N 31°11' E 122°10'10 9.7
2014-Jul-20 21:33N 31°06' E 122°20'8 8.2
2014-Jul-20 20:33N 31°07' E 122°30'7 7.2
2014-Jul-20 19:31N 31°07' E 122°38'8 6.3
2014-Jul-20 18:16N 31°10' E 122°47'0 0.1
2014-Jul-20 16:08N 31°10' E 122°47'0 0.0
2014-Jul-19 23:32N 31°10' E 122°47'0 0.1
2014-Jul-19 20:23N 31°10' E 122°47'0 0.1
2014-Jul-19 19:23N 31°10' E 122°47'0 0.0
2014-Jul-19 12:17N 31°10' E 122°47'19 0.4
2014-Jul-17 18:24N 30°52' E 122°53'1112.7
2014-Jul-17 17:33N 30°42' E 122°57'1312.7
2014-Jul-17 16:33N 30°30' E 123°01'1312.6
2014-Jul-17 15:32N 30°18' E 123°06'1212.0
2014-Jul-17 14:33N 30°06' E 123°06'  

Dump ship's entire track history